sensor_id;sensor_type;location;lat;lon;timestamp;pressure;altitude;pressure_sealevel;temperature;humidity
19676;BME280;39539;52.202;9.876;2023-06-19T00:01:53;100376.78;;;20.87;62.31
19676;BME280;39539;52.202;9.876;2023-06-19T00:04:19;100388.59;;;20.96;62.53
19676;BME280;39539;52.202;9.876;2023-06-19T00:06:44;100387.25;;;20.93;62.69
19676;BME280;39539;52.202;9.876;2023-06-19T00:09:09;100389.94;;;20.93;62.68
19676;BME280;39539;52.202;9.876;2023-06-19T00:11:34;100392.66;;;20.93;63.28
19676;BME280;39539;52.202;9.876;2023-06-19T00:14:00;100389.53;;;20.81;63.94
19676;BME280;39539;52.202;9.876;2023-06-19T00:16:26;100381.69;;;20.79;63.75
19676;BME280;39539;52.202;9.876;2023-06-19T00:18:51;100382.25;;;20.76;63.55
19676;BME280;39539;52.202;9.876;2023-06-19T00:21:22;100382.00;;;20.73;64.41
19676;BME280;39539;52.202;9.876;2023-06-19T00:23:51;100391.69;;;20.79;64.04
19676;BME280;39539;52.202;9.876;2023-06-19T00:26:17;100382.00;;;20.73;67.15
19676;BME280;39539;52.202;9.876;2023-06-19T00:28:44;100376.13;;;20.60;68.91
19676;BME280;39539;52.202;9.876;2023-06-19T00:31:11;100376.22;;;20.45;71.48
19676;BME280;39539;52.202;9.876;2023-06-19T00:33:39;100382.25;;;20.27;72.70
19676;BME280;39539;52.202;9.876;2023-06-19T00:36:12;100379.66;;;20.06;74.69
19676;BME280;39539;52.202;9.876;2023-06-19T00:38:38;100363.31;;;19.87;74.93
19676;BME280;39539;52.202;9.876;2023-06-19T00:41:04;100366.84;;;19.78;75.80
19676;BME280;39539;52.202;9.876;2023-06-19T00:43:30;100374.44;;;19.70;75.46
19676;BME280;39539;52.202;9.876;2023-06-19T00:45:59;100370.06;;;19.64;77.15
19676;BME280;39539;52.202;9.876;2023-06-19T00:48:29;100350.44;;;19.54;77.42
19676;BME280;39539;52.202;9.876;2023-06-19T00:50:56;100366.59;;;19.64;78.69
19676;BME280;39539;52.202;9.876;2023-06-19T00:53:22;100367.97;;;19.66;78.50
19676;BME280;39539;52.202;9.876;2023-06-19T00:55:48;100367.69;;;19.68;76.41
19676;BME280;39539;52.202;9.876;2023-06-19T00:58:17;100351.50;;;19.58;77.83
19676;BME280;39539;52.202;9.876;2023-06-19T01:00:43;100369.28;;;19.64;77.66
19676;BME280;39539;52.202;9.876;2023-06-19T01:03:08;100362.53;;;19.61;75.92
19676;BME280;39539;52.202;9.876;2023-06-19T01:05:35;100353.41;;;19.52;75.22
19676;BME280;39539;52.202;9.876;2023-06-19T01:10:48;100356.63;;;19.59;75.78
19676;BME280;39539;52.202;9.876;2023-06-19T01:16:04;100360.13;;;19.60;74.92
19676;BME280;39539;52.202;9.876;2023-06-19T01:18:31;100348.56;;;19.59;74.28
19676;BME280;39539;52.202;9.876;2023-06-19T01:20:57;100346.38;;;19.66;73.65
19676;BME280;39539;52.202;9.876;2023-06-19T01:23:33;100352.84;;;19.70;73.54
19676;BME280;39539;52.202;9.876;2023-06-19T01:25:58;100353.09;;;19.74;77.65
19676;BME280;39539;52.202;9.876;2023-06-19T01:28:23;100364.72;;;19.69;79.49
19676;BME280;39539;52.202;9.876;2023-06-19T01:30:51;100363.66;;;19.55;81.91
19676;BME280;39539;52.202;9.876;2023-06-19T01:33:27;100349.13;;;19.46;81.12
19676;BME280;39539;52.202;9.876;2023-06-19T01:35:55;100358.56;;;19.43;80.41
19676;BME280;39539;52.202;9.876;2023-06-19T01:38:21;100349.94;;;19.36;80.30
19676;BME280;39539;52.202;9.876;2023-06-19T01:40:50;100351.31;;;19.34;80.14
19676;BME280;39539;52.202;9.876;2023-06-19T01:43:18;100346.72;;;19.24;79.61
19676;BME280;39539;52.202;9.876;2023-06-19T01:45:43;100356.72;;;19.28;79.56
19676;BME280;39539;52.202;9.876;2023-06-19T01:48:09;100350.25;;;19.19;80.71
19676;BME280;39539;52.202;9.876;2023-06-19T01:50:34;100359.94;;;19.15;82.58
19676;BME280;39539;52.202;9.876;2023-06-19T01:53:00;100355.38;;;18.95;84.91
19676;BME280;39539;52.202;9.876;2023-06-19T01:55:26;100359.72;;;18.86;88.71
19676;BME280;39539;52.202;9.876;2023-06-19T01:57:51;100372.09;;;18.82;89.75
19676;BME280;39539;52.202;9.876;2023-06-19T02:00:17;100371.03;;;18.83;87.74
19676;BME280;39539;52.202;9.876;2023-06-19T02:02:43;100366.69;;;18.82;87.59
19676;BME280;39539;52.202;9.876;2023-06-19T02:05:08;100361.53;;;18.70;88.97
19676;BME280;39539;52.202;9.876;2023-06-19T02:07:33;100371.00;;;18.78;88.02
19676;BME280;39539;52.202;9.876;2023-06-19T02:09:59;100382.59;;;18.89;87.54
19676;BME280;39539;52.202;9.876;2023-06-19T02:12:24;100360.22;;;18.93;86.96
19676;BME280;39539;52.202;9.876;2023-06-19T02:14:49;100379.34;;;19.07;86.39
19676;BME280;39539;52.202;9.876;2023-06-19T02:17:15;100362.38;;;19.06;85.30
19676;BME280;39539;52.202;9.876;2023-06-19T02:19:40;100381.50;;;19.15;85.03
19676;BME280;39539;52.202;9.876;2023-06-19T02:22:06;100365.59;;;19.19;84.33
19676;BME280;39539;52.202;9.876;2023-06-19T02:24:32;100362.91;;;19.24;83.20
19676;BME280;39539;52.202;9.876;2023-06-19T02:26:57;100352.41;;;19.17;84.79
19676;BME280;39539;52.202;9.876;2023-06-19T02:29:23;100353.47;;;19.16;87.48
19676;BME280;39539;52.202;9.876;2023-06-19T02:31:48;100337.31;;;19.16;85.76
19676;BME280;39539;52.202;9.876;2023-06-19T02:34:16;100330.84;;;19.22;78.38
19676;BME280;39539;52.202;9.876;2023-06-19T02:36:41;100339.94;;;19.47;70.83
19676;BME280;39539;52.202;9.876;2023-06-19T02:39:08;100332.63;;;19.63;68.98
19676;BME280;39539;52.202;9.876;2023-06-19T02:41:33;100320.75;;;19.59;71.13
19676;BME280;39539;52.202;9.876;2023-06-19T02:43:59;100332.00;;;19.86;68.49
19676;BME280;39539;52.202;9.876;2023-06-19T02:46:24;100328.19;;;19.92;68.80
19676;BME280;39539;52.202;9.876;2023-06-19T02:48:49;100325.44;;;20.08;65.19
19676;BME280;39539;52.202;9.876;2023-06-19T02:51:15;100326.22;;;20.13;69.67
19676;BME280;39539;52.202;9.876;2023-06-19T02:53:40;100324.84;;;20.16;68.39
19676;BME280;39539;52.202;9.876;2023-06-19T02:56:07;100322.97;;;20.11;73.39
19676;BME280;39539;52.202;9.876;2023-06-19T02:58:33;100319.66;;;19.75;78.98
19676;BME280;39539;52.202;9.876;2023-06-19T03:00:59;100306.75;;;19.62;79.62
19676;BME280;39539;52.202;9.876;2023-06-19T03:03:25;100315.13;;;19.50;78.49
19676;BME280;39539;52.202;9.876;2023-06-19T03:05:50;100312.97;;;19.47;78.41
19676;BME280;39539;52.202;9.876;2023-06-19T03:08:15;100314.88;;;19.36;78.63
19676;BME280;39539;52.202;9.876;2023-06-19T03:10:41;100320.31;;;19.31;78.31
19676;BME280;39539;52.202;9.876;2023-06-19T03:13:06;100318.91;;;19.44;76.32
19676;BME280;39539;52.202;9.876;2023-06-19T03:15:31;100321.03;;;19.62;74.26
19676;BME280;39539;52.202;9.876;2023-06-19T03:17:57;100319.69;;;19.65;74.87
19676;BME280;39539;52.202;9.876;2023-06-19T03:20:22;100338.25;;;19.77;73.58
19676;BME280;39539;52.202;9.876;2023-06-19T03:22:47;100339.84;;;19.88;72.56
19676;BME280;39539;52.202;9.876;2023-06-19T03:25:13;100329.81;;;19.93;72.60
19676;BME280;39539;52.202;9.876;2023-06-19T03:27:38;100336.50;;;20.06;72.08
19676;BME280;39539;52.202;9.876;2023-06-19T03:30:04;100325.44;;;20.03;72.56
19676;BME280;39539;52.202;9.876;2023-06-19T03:32:32;100322.75;;;20.03;71.50
19676;BME280;39539;52.202;9.876;2023-06-19T03:34:58;100338.06;;;20.12;70.16
19676;BME280;39539;52.202;9.876;2023-06-19T03:37:23;100334.81;;;20.15;72.30
19676;BME280;39539;52.202;9.876;2023-06-19T03:39:50;100338.59;;;20.19;70.20
19676;BME280;39539;52.202;9.876;2023-06-19T03:42:15;100333.72;;;20.22;73.24
19676;BME280;39539;52.202;9.876;2023-06-19T03:44:41;100334.56;;;20.12;76.40
19676;BME280;39539;52.202;9.876;2023-06-19T03:47:06;100337.00;;;20.13;79.00
19676;BME280;39539;52.202;9.876;2023-06-19T03:49:32;100342.25;;;19.89;82.16
19676;BME280;39539;52.202;9.876;2023-06-19T03:51:57;100347.97;;;19.72;80.50
19676;BME280;39539;52.202;9.876;2023-06-19T03:54:22;100343.13;;;19.69;78.27
19676;BME280;39539;52.202;9.876;2023-06-19T03:56:48;100337.22;;;19.62;76.10
19676;BME280;39539;52.202;9.876;2023-06-19T03:59:13;100356.59;;;19.80;74.06
19676;BME280;39539;52.202;9.876;2023-06-19T04:01:38;100357.63;;;19.89;73.48
19676;BME280;39539;52.202;9.876;2023-06-19T04:04:04;100353.00;;;19.94;72.18
19676;BME280;39539;52.202;9.876;2023-06-19T04:06:29;100338.72;;;19.94;71.63
19676;BME280;39539;52.202;9.876;2023-06-19T04:08:54;100351.84;;;20.16;73.57
19676;BME280;39539;52.202;9.876;2023-06-19T04:11:20;100356.66;;;20.24;74.79
19676;BME280;39539;52.202;9.876;2023-06-19T04:13:46;100340.19;;;20.21;74.37
19676;BME280;39539;52.202;9.876;2023-06-19T04:16:11;100343.41;;;20.23;73.58
19676;BME280;39539;52.202;9.876;2023-06-19T04:18:36;100362.00;;;20.29;72.76
19676;BME280;39539;52.202;9.876;2023-06-19T04:21:02;100356.59;;;20.29;74.37
19676;BME280;39539;52.202;9.876;2023-06-19T04:23:27;100364.47;;;20.21;74.28
19676;BME280;39539;52.202;9.876;2023-06-19T04:25:53;100353.78;;;20.00;75.54
19676;BME280;39539;52.202;9.876;2023-06-19T04:28:18;100350.06;;;19.96;75.94
19676;BME280;39539;52.202;9.876;2023-06-19T04:30:43;100356.81;;;19.93;76.02
19676;BME280;39539;52.202;9.876;2023-06-19T04:33:09;100373.28;;;19.87;77.44
19676;BME280;39539;52.202;9.876;2023-06-19T04:35:34;100368.97;;;19.86;76.02
19676;BME280;39539;52.202;9.876;2023-06-19T04:38:07;100369.22;;;19.84;74.48
19676;BME280;39539;52.202;9.876;2023-06-19T04:40:33;100379.22;;;19.89;74.88
19676;BME280;39539;52.202;9.876;2023-06-19T04:43:00;100373.25;;;19.92;75.20
19676;BME280;39539;52.202;9.876;2023-06-19T04:45:27;100375.38;;;20.00;76.97
19676;BME280;39539;52.202;9.876;2023-06-19T04:47:53;100368.94;;;19.96;76.27
19676;BME280;39539;52.202;9.876;2023-06-19T04:50:19;100383.44;;;20.10;72.22
19676;BME280;39539;52.202;9.876;2023-06-19T04:52:44;100365.09;;;20.07;74.15
19676;BME280;39539;52.202;9.876;2023-06-19T04:55:09;100379.63;;;20.16;74.85
19676;BME280;39539;52.202;9.876;2023-06-19T04:57:36;100376.38;;;20.19;73.28
19676;BME280;39539;52.202;9.876;2023-06-19T05:00:05;100353.22;;;20.08;72.60
19676;BME280;39539;52.202;9.876;2023-06-19T05:02:35;100364.69;;;20.29;72.27
19676;BME280;39539;52.202;9.876;2023-06-19T05:05:01;100362.78;;;20.35;73.26
19676;BME280;39539;52.202;9.876;2023-06-19T05:07:31;100360.19;;;20.19;73.14
19676;BME280;39539;52.202;9.876;2023-06-19T05:09:57;100369.38;;;20.13;74.48
19676;BME280;39539;52.202;9.876;2023-06-19T05:12:23;100372.59;;;20.15;74.64
19676;BME280;39539;52.202;9.876;2023-06-19T05:14:48;100357.88;;;19.92;75.66
19676;BME280;39539;52.202;9.876;2023-06-19T05:17:13;100381.31;;;20.02;74.70
19676;BME280;39539;52.202;9.876;2023-06-19T05:19:39;100374.28;;;20.01;73.91
19676;BME280;39539;52.202;9.876;2023-06-19T05:22:04;100380.50;;;20.02;76.12
19676;BME280;39539;52.202;9.876;2023-06-19T05:24:30;100384.50;;;20.09;76.28
19676;BME280;39539;52.202;9.876;2023-06-19T05:26:55;100391.09;;;19.88;77.26
19676;BME280;39539;52.202;9.876;2023-06-19T05:29:20;100385.19;;;19.76;77.50
19676;BME280;39539;52.202;9.876;2023-06-19T05:31:46;100392.72;;;19.84;77.60
19676;BME280;39539;52.202;9.876;2023-06-19T05:34:11;100398.09;;;19.89;77.15
19676;BME280;39539;52.202;9.876;2023-06-19T05:36:36;100406.41;;;20.03;73.77
19676;BME280;39539;52.202;9.876;2023-06-19T05:39:02;100402.28;;;20.15;72.27
19676;BME280;39539;52.202;9.876;2023-06-19T05:41:27;100411.91;;;20.37;72.05
19676;BME280;39539;52.202;9.876;2023-06-19T05:43:54;100391.88;;;20.43;73.58
19676;BME280;39539;52.202;9.876;2023-06-19T05:46:19;100398.28;;;20.62;68.04
19676;BME280;39539;52.202;9.876;2023-06-19T05:48:44;100414.28;;;20.93;70.95
19676;BME280;39539;52.202;9.876;2023-06-19T05:51:09;100411.53;;;20.98;66.34
19676;BME280;39539;52.202;9.876;2023-06-19T05:53:36;100408.13;;;21.17;66.76
19676;BME280;39539;52.202;9.876;2023-06-19T05:56:03;100410.63;;;21.42;64.02
19676;BME280;39539;52.202;9.876;2023-06-19T05:58:29;100405.16;;;21.47;63.69
19676;BME280;39539;52.202;9.876;2023-06-19T06:00:54;100403.97;;;21.59;63.91
19676;BME280;39539;52.202;9.876;2023-06-19T06:03:23;100413.97;;;21.82;63.67
19676;BME280;39539;52.202;9.876;2023-06-19T06:05:50;100396.69;;;22.02;62.82
19676;BME280;39539;52.202;9.876;2023-06-19T06:08:15;100406.81;;;22.39;62.40
19676;BME280;39539;52.202;9.876;2023-06-19T06:10:41;100396.53;;;22.74;60.45
19676;BME280;39539;52.202;9.876;2023-06-19T06:13:06;100409.16;;;23.17;58.48
19676;BME280;39539;52.202;9.876;2023-06-19T06:15:32;100412.06;;;23.53;58.03
19676;BME280;39539;52.202;9.876;2023-06-19T06:17:57;100399.41;;;24.04;56.54
19676;BME280;39539;52.202;9.876;2023-06-19T06:20:22;100400.59;;;24.11;55.28
19676;BME280;39539;52.202;9.876;2023-06-19T06:22:49;100399.00;;;23.96;56.90
19676;BME280;39539;52.202;9.876;2023-06-19T06:25:15;100404.25;;;23.79;56.23
19676;BME280;39539;52.202;9.876;2023-06-19T06:27:41;100401.59;;;23.60;57.74
19676;BME280;39539;52.202;9.876;2023-06-19T06:30:08;100403.78;;;23.30;60.07
19676;BME280;39539;52.202;9.876;2023-06-19T06:32:34;100397.44;;;23.21;57.97
19676;BME280;39539;52.202;9.876;2023-06-19T06:35:02;100400.72;;;23.18;58.91
19676;BME280;39539;52.202;9.876;2023-06-19T06:37:33;100411.97;;;23.12;59.37
19676;BME280;39539;52.202;9.876;2023-06-19T06:39:59;100400.47;;;23.01;61.00
19676;BME280;39539;52.202;9.876;2023-06-19T06:42:24;100398.47;;;23.06;61.60
19676;BME280;39539;52.202;9.876;2023-06-19T06:44:50;100415.91;;;23.19;63.29
19676;BME280;39539;52.202;9.876;2023-06-19T06:47:15;100410.28;;;23.16;67.06
19676;BME280;39539;52.202;9.876;2023-06-19T06:49:41;100413.19;;;23.19;72.35
19676;BME280;39539;52.202;9.876;2023-06-19T06:52:07;100403.28;;;22.96;77.17
19676;BME280;39539;52.202;9.876;2023-06-19T06:54:34;100423.19;;;23.05;75.32
19676;BME280;39539;52.202;9.876;2023-06-19T06:56:59;100435.34;;;23.07;76.02
19676;BME280;39539;52.202;9.876;2023-06-19T06:59:26;100440.22;;;23.24;76.07
19676;BME280;39539;52.202;9.876;2023-06-19T07:01:56;100449.22;;;23.39;77.82
19676;BME280;39539;52.202;9.876;2023-06-19T07:04:22;100448.25;;;23.62;77.83
19676;BME280;39539;52.202;9.876;2023-06-19T07:06:54;100450.59;;;24.10;75.80
19676;BME280;39539;52.202;9.876;2023-06-19T07:09:29;100451.84;;;24.91;69.12
19676;BME280;39539;52.202;9.876;2023-06-19T07:11:54;100452.56;;;25.50;66.23
19676;BME280;39539;52.202;9.876;2023-06-19T07:14:20;100452.81;;;25.93;65.50
19676;BME280;39539;52.202;9.876;2023-06-19T07:16:45;100448.50;;;26.10;63.25
19676;BME280;39539;52.202;9.876;2023-06-19T07:19:11;100444.84;;;26.23;60.33
19676;BME280;39539;52.202;9.876;2023-06-19T07:21:37;100429.00;;;26.16;60.21
19676;BME280;39539;52.202;9.876;2023-06-19T07:24:05;100446.31;;;26.29;59.49
19676;BME280;39539;52.202;9.876;2023-06-19T07:26:31;100437.53;;;27.19;56.14
19676;BME280;39539;52.202;9.876;2023-06-19T07:28:57;100439.94;;;28.99;52.71
19676;BME280;39539;52.202;9.876;2023-06-19T07:31:22;100429.22;;;30.78;47.39
19676;BME280;39539;52.202;9.876;2023-06-19T07:33:48;100412.28;;;31.80;44.57
19676;BME280;39539;52.202;9.876;2023-06-19T07:36:13;100397.88;;;32.57;42.49
19676;BME280;39539;52.202;9.876;2023-06-19T07:38:43;100387.91;;;34.10;40.66
19676;BME280;39539;52.202;9.876;2023-06-19T07:41:09;100381.41;;;35.92;37.93
19676;BME280;39539;52.202;9.876;2023-06-19T07:43:36;100364.88;;;37.51;35.33
19676;BME280;39539;52.202;9.876;2023-06-19T07:46:01;100349.41;;;38.63;33.30
19676;BME280;39539;52.202;9.876;2023-06-19T07:48:27;100343.69;;;39.41;32.09
19676;BME280;39539;52.202;9.876;2023-06-19T07:50:53;100345.13;;;40.82;31.70
19676;BME280;39539;52.202;9.876;2023-06-19T07:53:19;100326.19;;;41.84;30.52
19676;BME280;39539;52.202;9.876;2023-06-19T07:55:44;100316.34;;;42.36;30.52
19676;BME280;39539;52.202;9.876;2023-06-19T07:58:10;100327.56;;;42.52;28.91
19676;BME280;39539;52.202;9.876;2023-06-19T08:00:35;100317.03;;;43.38;29.18
19676;BME280;39539;52.202;9.876;2023-06-19T08:03:00;100311.56;;;43.77;29.19
19676;BME280;39539;52.202;9.876;2023-06-19T08:05:26;100304.84;;;44.54;28.39
19676;BME280;39539;52.202;9.876;2023-06-19T08:07:52;100294.66;;;44.35;27.30
19676;BME280;39539;52.202;9.876;2023-06-19T08:10:17;100296.28;;;44.71;26.97
19676;BME280;39539;52.202;9.876;2023-06-19T08:12:43;100294.72;;;44.19;28.15
19676;BME280;39539;52.202;9.876;2023-06-19T08:15:12;100302.25;;;44.47;27.85
19676;BME280;39539;52.202;9.876;2023-06-19T08:17:40;100289.56;;;44.81;27.44
19676;BME280;39539;52.202;9.876;2023-06-19T08:20:15;100294.66;;;45.08;27.48
19676;BME280;39539;52.202;9.876;2023-06-19T08:22:41;100274.53;;;45.44;27.24
19676;BME280;39539;52.202;9.876;2023-06-19T08:25:08;100286.06;;;45.46;27.28
19676;BME280;39539;52.202;9.876;2023-06-19T08:27:33;100276.56;;;45.09;27.71
19676;BME280;39539;52.202;9.876;2023-06-19T08:30:02;100279.81;;;45.42;26.75
19676;BME280;39539;52.202;9.876;2023-06-19T08:32:28;100277.66;;;45.12;27.27
19676;BME280;39539;52.202;9.876;2023-06-19T08:34:53;100274.66;;;45.63;26.96
19676;BME280;39539;52.202;9.876;2023-06-19T08:37:24;100281.81;;;46.17;26.82
19676;BME280;39539;52.202;9.876;2023-06-19T08:39:58;100282.44;;;46.52;26.46
19676;BME280;39539;52.202;9.876;2023-06-19T08:42:25;100275.88;;;45.18;27.16
19676;BME280;39539;52.202;9.876;2023-06-19T08:44:50;100277.75;;;45.21;27.81
19676;BME280;39539;52.202;9.876;2023-06-19T08:47:16;100279.47;;;45.84;26.65
19676;BME280;39539;52.202;9.876;2023-06-19T08:49:42;100283.19;;;45.81;26.66
19676;BME280;39539;52.202;9.876;2023-06-19T08:52:11;100282.63;;;46.18;25.80
19676;BME280;39539;52.202;9.876;2023-06-19T08:54:36;100277.03;;;46.27;26.25
19676;BME280;39539;52.202;9.876;2023-06-19T08:57:10;100274.97;;;46.18;27.21
19676;BME280;39539;52.202;9.876;2023-06-19T08:59:56;100276.31;;;46.54;26.58
19676;BME280;39539;52.202;9.876;2023-06-19T09:02:40;100275.63;;;45.69;26.56
19676;BME280;39539;52.202;9.876;2023-06-19T09:05:15;100281.34;;;46.09;27.40
19676;BME280;39539;52.202;9.876;2023-06-19T09:07:42;100286.91;;;45.34;28.42
19676;BME280;39539;52.202;9.876;2023-06-19T09:10:16;100284.09;;;44.39;28.68
19676;BME280;39539;52.202;9.876;2023-06-19T09:12:43;100302.63;;;44.36;30.52
19676;BME280;39539;52.202;9.876;2023-06-19T09:15:14;100295.88;;;44.47;28.35
19676;BME280;39539;52.202;9.876;2023-06-19T09:17:40;100297.31;;;45.12;29.04
19676;BME280;39539;52.202;9.876;2023-06-19T09:20:06;100295.34;;;45.34;28.96
19676;BME280;39539;52.202;9.876;2023-06-19T09:22:35;100298.59;;;44.98;29.06
19676;BME280;39539;52.202;9.876;2023-06-19T09:25:01;100285.75;;;44.88;29.49
19676;BME280;39539;52.202;9.876;2023-06-19T09:27:32;100298.28;;;44.96;27.92
19676;BME280;39539;52.202;9.876;2023-06-19T09:29:58;100285.59;;;44.91;28.91
19676;BME280;39539;52.202;9.876;2023-06-19T09:32:25;100306.16;;;44.88;29.33
19676;BME280;39539;52.202;9.876;2023-06-19T09:34:53;100296.91;;;45.13;29.56
19676;BME280;39539;52.202;9.876;2023-06-19T09:37:23;100308.59;;;45.34;29.02
19676;BME280;39539;52.202;9.876;2023-06-19T09:39:55;100307.09;;;45.20;29.03
19676;BME280;39539;52.202;9.876;2023-06-19T09:42:45;100308.13;;;45.13;28.36
19676;BME280;39539;52.202;9.876;2023-06-19T09:45:12;100312.25;;;44.48;29.33
19676;BME280;39539;52.202;9.876;2023-06-19T09:47:45;100301.91;;;42.37;31.15
19676;BME280;39539;52.202;9.876;2023-06-19T09:50:14;100301.00;;;39.89;33.35
19676;BME280;39539;52.202;9.876;2023-06-19T09:52:41;100337.97;;;39.10;36.02
19676;BME280;39539;52.202;9.876;2023-06-19T09:55:08;100338.22;;;37.86;36.42
19676;BME280;39539;52.202;9.876;2023-06-19T09:57:36;100353.31;;;36.99;37.83
19676;BME280;39539;52.202;9.876;2023-06-19T10:00:07;100361.63;;;35.87;39.44
19676;BME280;39539;52.202;9.876;2023-06-19T10:02:46;100359.09;;;34.71;41.39
19676;BME280;39539;52.202;9.876;2023-06-19T10:05:12;100366.69;;;33.87;43.28
19676;BME280;39539;52.202;9.876;2023-06-19T10:07:41;100374.72;;;33.46;44.66
19676;BME280;39539;52.202;9.876;2023-06-19T10:10:22;100372.38;;;33.48;45.38
19676;BME280;39539;52.202;9.876;2023-06-19T10:12:48;100369.00;;;33.85;44.67
19676;BME280;39539;52.202;9.876;2023-06-19T10:15:19;100379.97;;;33.78;44.88
19676;BME280;39539;52.202;9.876;2023-06-19T10:17:52;100377.84;;;33.45;45.72
19676;BME280;39539;52.202;9.876;2023-06-19T10:20:45;100389.38;;;32.85;46.84
19676;BME280;39539;52.202;9.876;2023-06-19T10:25:44;100394.97;;;32.30;47.31
19676;BME280;39539;52.202;9.876;2023-06-19T10:28:24;100397.84;;;32.96;47.18
19676;BME280;39539;52.202;9.876;2023-06-19T10:31:08;100390.31;;;32.93;46.39
19676;BME280;39539;52.202;9.876;2023-06-19T10:33:36;100383.88;;;33.04;46.67
19676;BME280;39539;52.202;9.876;2023-06-19T10:36:26;100393.66;;;33.25;47.30
19676;BME280;39539;52.202;9.876;2023-06-19T10:38:51;100382.88;;;33.39;48.26
19676;BME280;39539;52.202;9.876;2023-06-19T10:41:19;100388.34;;;33.59;47.14
19676;BME280;39539;52.202;9.876;2023-06-19T10:44:06;100387.59;;;33.62;46.89
19676;BME280;39539;52.202;9.876;2023-06-19T10:46:37;100361.22;;;33.91;46.08
19676;BME280;39539;52.202;9.876;2023-06-19T10:49:05;100376.50;;;34.11;45.57
19676;BME280;39539;52.202;9.876;2023-06-19T10:51:33;100366.28;;;33.36;47.49
19676;BME280;39539;52.202;9.876;2023-06-19T10:54:00;100371.63;;;32.43;48.64
19676;BME280;39539;52.202;9.876;2023-06-19T10:56:26;100379.69;;;32.13;49.58
19676;BME280;39539;52.202;9.876;2023-06-19T10:59:08;100378.19;;;32.55;48.09
19676;BME280;39539;52.202;9.876;2023-06-19T11:01:39;100384.47;;;32.98;49.89
19676;BME280;39539;52.202;9.876;2023-06-19T11:04:07;100377.19;;;33.05;48.75
19676;BME280;39539;52.202;9.876;2023-06-19T11:06:44;100367.03;;;33.09;48.92
19676;BME280;39539;52.202;9.876;2023-06-19T11:09:12;100383.31;;;32.76;49.91
19676;BME280;39539;52.202;9.876;2023-06-19T11:11:42;100384.25;;;32.64;49.03
19676;BME280;39539;52.202;9.876;2023-06-19T11:14:10;100374.44;;;32.08;48.85
19676;BME280;39539;52.202;9.876;2023-06-19T11:16:38;100376.03;;;32.09;48.51
19676;BME280;39539;52.202;9.876;2023-06-19T11:19:13;100373.44;;;32.16;49.17
19676;BME280;39539;52.202;9.876;2023-06-19T11:21:39;100370.56;;;32.29;50.50
19676;BME280;39539;52.202;9.876;2023-06-19T11:24:12;100387.16;;;32.52;50.13
19676;BME280;39539;52.202;9.876;2023-06-19T11:26:43;100377.81;;;32.56;50.24
19676;BME280;39539;52.202;9.876;2023-06-19T11:29:25;100390.81;;;32.98;49.70
19676;BME280;39539;52.202;9.876;2023-06-19T11:31:51;100388.28;;;33.32;47.83
19676;BME280;39539;52.202;9.876;2023-06-19T11:34:19;100392.97;;;33.54;46.65
19676;BME280;39539;52.202;9.876;2023-06-19T11:36:45;100384.41;;;33.60;45.70
19676;BME280;39539;52.202;9.876;2023-06-19T11:39:15;100389.19;;;33.89;44.89
19676;BME280;39539;52.202;9.876;2023-06-19T11:41:45;100374.22;;;34.17;44.67
19676;BME280;39539;52.202;9.876;2023-06-19T11:44:10;100372.19;;;34.48;44.12
19676;BME280;39539;52.202;9.876;2023-06-19T11:46:48;100382.91;;;34.19;44.02
19676;BME280;39539;52.202;9.876;2023-06-19T11:49:17;100380.19;;;33.96;44.73
19676;BME280;39539;52.202;9.876;2023-06-19T11:51:44;100363.78;;;33.27;44.41
19676;BME280;39539;52.202;9.876;2023-06-19T11:54:19;100365.25;;;33.44;45.35
19676;BME280;39539;52.202;9.876;2023-06-19T11:56:48;100362.25;;;33.52;45.10
19676;BME280;39539;52.202;9.876;2023-06-19T11:59:14;100382.50;;;33.64;45.14
19676;BME280;39539;52.202;9.876;2023-06-19T12:01:40;100371.16;;;33.69;45.68
19676;BME280;39539;52.202;9.876;2023-06-19T12:04:06;100363.88;;;32.88;46.11
19676;BME280;39539;52.202;9.876;2023-06-19T12:06:32;100356.81;;;32.68;47.44
19676;BME280;39539;52.202;9.876;2023-06-19T12:08:59;100377.09;;;32.59;47.10
19676;BME280;39539;52.202;9.876;2023-06-19T12:11:24;100374.13;;;32.68;45.77
19676;BME280;39539;52.202;9.876;2023-06-19T12:13:59;100370.09;;;32.85;45.83
19676;BME280;39539;52.202;9.876;2023-06-19T12:16:25;100364.09;;;32.79;46.66
19676;BME280;39539;52.202;9.876;2023-06-19T12:18:56;100376.56;;;32.73;45.56
19676;BME280;39539;52.202;9.876;2023-06-19T12:21:25;100364.16;;;32.05;47.10
19676;BME280;39539;52.202;9.876;2023-06-19T12:23:53;100371.97;;;31.36;49.11
19676;BME280;39539;52.202;9.876;2023-06-19T12:26:31;100367.78;;;30.54;48.79
19676;BME280;39539;52.202;9.876;2023-06-19T12:29:17;100376.84;;;30.55;49.56
19676;BME280;39539;52.202;9.876;2023-06-19T12:32:02;100375.38;;;30.73;50.20
19676;BME280;39539;52.202;9.876;2023-06-19T12:34:28;100375.03;;;31.03;49.64
19676;BME280;39539;52.202;9.876;2023-06-19T12:36:54;100386.75;;;31.31;48.75
19676;BME280;39539;52.202;9.876;2023-06-19T12:39:20;100386.16;;;31.54;48.09
19676;BME280;39539;52.202;9.876;2023-06-19T12:42:04;100381.63;;;31.46;47.92
19676;BME280;39539;52.202;9.876;2023-06-19T12:44:29;100393.94;;;31.52;47.78
19676;BME280;39539;52.202;9.876;2023-06-19T12:47:01;100400.38;;;31.28;49.37
19676;BME280;39539;52.202;9.876;2023-06-19T12:49:28;100388.63;;;30.83;49.92
19676;BME280;39539;52.202;9.876;2023-06-19T12:51:54;100396.19;;;30.74;51.04
19676;BME280;39539;52.202;9.876;2023-06-19T12:54:23;100396.72;;;30.92;50.36
19676;BME280;39539;52.202;9.876;2023-06-19T12:56:49;100409.13;;;31.02;49.39
19676;BME280;39539;52.202;9.876;2023-06-19T12:59:15;100400.28;;;31.08;49.72
19676;BME280;39539;52.202;9.876;2023-06-19T13:01:41;100395.63;;;30.97;50.82